Time;durP1;ratioP1;P1;durP2;ratioP2;P2;SDS_P1;SDS_P2;PMS_P1;PMS_P2;Temp;Humidity;BMP_temperature;BMP_pressure;BME280_temperature;BME280_humidity;BME280_pressure;Samples;Min_cycle;Max_cycle;Signal;HPM_P1;HPM_P2
2023/09/02 00:00:19;;;;;;;;;16.67;12.67;;;;;14.91;80.41;99921.47;6310137;20;3530645;-60
2023/09/02 00:02:48;;;;;;;;;12.33;12.33;;;;;14.90;80.46;99917.91;6306395;20;3527432;-60
2023/09/02 00:05:17;;;;;;;;;15.00;11.67;;;;;15.06;79.86;99923.00;6310730;20;3515914;-59
2023/09/02 00:07:45;;;;;;;;;13.00;12.00;;;;;14.71;80.23;99909.44;6307282;20;3538789;-59
2023/09/02 00:10:14;;;;;;;;;14.00;12.67;;;;;14.30;80.92;99912.47;6273568;20;3523315;-60
2023/09/02 00:12:43;;;;;;;;;15.00;14.00;;;;;15.10;80.43;99913.66;6304448;20;3521140;-59
2023/09/02 00:15:11;;;;;;;;;14.33;12.00;;;;;15.23;79.61;99916.28;6307391;20;3509649;-60
2023/09/02 00:17:39;;;;;;;;;15.50;13.00;;;;;14.28;80.25;99913.47;6306606;20;2807597;-59
2023/09/02 00:20:09;;;;;;;;;12.33;12.33;;;;;14.64;80.20;99909.06;6275874;20;3526407;-60
2023/09/02 00:22:37;;;;;;;;;13.00;13.00;;;;;14.01;80.79;99908.25;6314552;20;2793047;-60
2023/09/02 00:25:06;;;;;;;;;11.00;11.00;;;;;14.10;80.88;99901.31;6279190;20;3527332;-59
2023/09/02 00:27:35;;;;;;;;;13.00;12.00;;;;;14.59;80.44;99905.84;6275421;20;3536743;-60
2023/09/02 00:30:04;;;;;;;;;11.00;11.00;;;;;14.22;80.29;99903.13;6313346;20;2793100;-59
2023/09/02 00:32:33;;;;;;;;;11.00;9.00;;;;;13.75;81.33;99899.31;6283197;20;2769170;-59
2023/09/02 00:35:02;;;;;;;;;14.00;11.00;;;;;13.91;81.18;99893.69;6281337;20;3511805;-60
2023/09/02 00:37:31;;;;;;;;;11.33;11.00;;;;;14.37;80.82;99901.13;6312010;20;3521210;-59
2023/09/02 00:40:00;;;;;;;;;10.00;10.00;;;;;14.18;80.68;99907.00;6314456;20;3506555;-59
2023/09/02 00:42:31;;;;;;;;;13.00;11.33;;;;;14.09;80.90;99907.69;6311914;20;3505671;-59
2023/09/02 00:44:59;;;;;;;;;12.00;12.00;;;;;14.11;80.92;99903.03;6313316;20;3414897;-59
2023/09/02 00:47:28;;;;;;;;;12.00;12.00;;;;;14.00;81.20;99903.81;6314126;20;2803502;-58
2023/09/02 00:50:00;;;;;;;;;10.00;10.00;;;;;13.92;81.33;99908.91;6314288;20;2788924;-58
2023/09/02 00:52:33;;;;;;;;;11.00;11.00;;;;;14.04;81.17;99909.88;6283896;20;2794080;-58
2023/09/02 00:55:03;;;;;;;;;14.33;11.67;;;;;14.20;80.90;99915.00;6312079;20;2789969;-58
2023/09/02 00:57:31;;;;;;;;;10.67;10.67;;;;;14.11;80.99;99916.53;6310881;20;3526333;-56
2023/09/02 01:00:03;;;;;;;;;11.00;11.00;;;;;14.32;81.05;99915.94;6311902;20;2790004;-57
2023/09/02 01:02:34;;;;;;;;;12.00;11.00;;;;;14.31;80.72;99927.72;6281152;20;3518054;-60
2023/09/02 01:05:03;;;;;;;;;10.00;10.00;;;;;14.65;80.86;99918.03;6311396;20;3514848;-60
2023/09/02 01:07:33;;;;;;;;;13.00;13.00;;;;;14.04;81.06;99915.25;6314723;20;3525382;-59
2023/09/02 01:10:03;;;;;;;;;14.00;12.00;;;;;13.92;81.47;99914.28;6316081;20;2805478;-58
2023/09/02 01:12:32;;;;;;;;;10.33;10.33;;;;;13.74;81.97;99918.31;6280923;20;3515935;-59
2023/09/02 01:14:59;;;;;;;;;12.00;11.50;;;;;13.49;82.17;99913.78;6312275;20;2795088;-59
2023/09/02 01:17:28;;;;;;;;;11.00;11.00;;;;;13.66;81.90;99916.16;6283373;20;3512798;-60
2023/09/02 01:19:59;;;;;;;;;11.67;10.00;;;;;13.76;81.57;99913.66;6313874;20;2784656;-59
2023/09/02 01:23:02;;;;;;;;;14.00;14.00;;;;;13.55;81.55;99903.41;6313827;20;2809097;-60
2023/09/02 01:26:26;;;;;;;;;11.50;11.50;;;;;13.39;81.56;99910.88;6284497;20;2802523;-59
2023/09/02 01:29:05;;;;;;;;;13.00;13.00;;;;;13.23;82.17;99908.34;6279600;20;2785810;-59
2023/09/02 01:31:38;;;;;;;;;9.71;9.43;;;;;13.76;81.30;99910.97;6353875;20;3505455;-60
2023/09/02 01:34:09;;;;;;;;;11.00;11.00;;;;;13.58;80.78;99914.00;6310176;20;3512777;-60
2023/09/02 01:36:43;;;;;;;;;13.67;9.00;;;;;14.26;80.44;99918.09;6306490;20;2776353;-59
2023/09/02 01:39:15;;;;;;;;;11.50;11.50;;;;;13.73;80.68;99917.44;6316215;20;2802379;-57
2023/09/02 01:41:45;;;;;;;;;11.00;11.00;;;;;13.53;81.13;99910.78;6280839;20;3526305;-59
2023/09/02 01:44:15;;;;;;;;;10.67;10.67;;;;;14.08;81.13;99911.34;6310612;20;3517074;-59
2023/09/02 01:46:45;;;;;;;;;10.00;10.00;;;;;14.54;79.86;99918.81;6311703;20;3513972;-61
2023/09/02 01:49:14;;;;;;;;;12.67;11.00;;;;;14.11;79.99;99915.66;6309101;20;2788893;-58
2023/09/02 01:51:43;;;;;;;;;13.50;12.50;;;;;13.99;80.30;99917.44;6313435;20;2806650;-60
2023/09/02 01:54:12;;;;;;;;;13.00;11.00;;;;;14.03;80.22;99921.63;6280311;20;3526416;-59
2023/09/02 01:56:41;;;;;;;;;11.00;10.00;;;;;13.55;80.67;99918.75;6318657;20;2785774;-60
2023/09/02 01:59:08;;;;;;;;;11.00;11.00;;;;;13.60;80.75;99930.94;6281472;20;2787052;-59
2023/09/02 02:01:37;;;;;;;;;11.00;11.00;;;;;14.13;80.21;99925.38;6278038;20;3534772;-57
2023/09/02 02:04:38;;;;;;;;;11.00;11.00;;;;;13.12;80.77;99921.69;6275647;20;3514811;-58
2023/09/02 02:07:15;;;;;;;;;13.00;11.50;;;;;13.33;80.97;99928.34;6308781;20;2804426;-59
2023/09/02 02:09:52;;;;;;;;;9.33;8.00;;;;;13.73;80.81;99927.38;6273648;20;2763910;-59
2023/09/02 02:12:21;;;;;;;;;13.00;12.00;;;;;13.87;80.83;99921.00;6307754;20;2803473;-59
2023/09/02 02:14:50;;;;;;;;;12.00;12.00;;;;;13.28;81.02;99926.94;6276039;20;2791084;-58
2023/09/02 02:17:18;;;;;;;;;12.00;12.00;;;;;13.69;81.09;99921.34;6315307;20;2805498;-59
2023/09/02 02:19:45;;;;;;;;;11.00;10.50;;;;;13.54;81.17;99917.03;6286437;20;2791969;-60
2023/09/02 02:22:13;;;;;;;;;12.00;12.00;;;;;13.77;81.32;99924.38;6285436;20;2808775;-60
2023/09/02 02:24:42;;;;;;;;;12.67;12.67;;;;;14.18;80.86;99923.22;6284562;20;3537852;-59
2023/09/02 02:27:10;;;;;;;;;15.50;15.00;;;;;13.25;81.26;99919.88;6285457;20;2800313;-60
2023/09/02 02:29:39;;;;;;;;;12.00;12.00;;;;;13.06;81.61;99911.31;6278854;20;3508663;-60
2023/09/02 02:32:06;;;;;;;;;13.00;12.00;;;;;13.46;81.88;99916.72;6315116;20;2800817;-59
2023/09/02 02:34:35;;;;;;;;;12.33;12.33;;;;;13.79;81.28;99911.59;6280616;20;3542050;-60
2023/09/02 02:37:03;;;;;;;;;16.00;12.00;;;;;14.14;80.86;99921.72;6315596;20;2802401;-57
2023/09/02 02:39:32;;;;;;;;;14.00;12.67;;;;;14.14;80.78;99916.31;6279492;20;3538830;-60
2023/09/02 02:42:00;;;;;;;;;11.00;11.00;;;;;13.95;81.04;99918.63;6286025;20;2794138;-57
2023/09/02 02:44:29;;;;;;;;;12.00;11.00;;;;;14.04;81.43;99915.25;6282901;20;2791462;-57
2023/09/02 02:46:56;;;;;;;;;15.00;12.00;;;;;14.16;81.46;99911.66;6313818;20;2824715;-60
2023/09/02 02:49:24;;;;;;;;;14.00;13.00;;;;;14.20;81.38;99904.22;6279752;20;2805469;-59
2023/09/02 02:51:56;;;;;;;;;13.00;13.00;;;;;14.02;81.75;99906.41;6273980;20;3524211;-58
2023/09/02 02:54:24;;;;;;;;;15.67;12.67;;;;;14.03;81.83;99914.41;6308959;20;3519104;-60
2023/09/02 02:56:54;;;;;;;;;11.67;11.67;;;;;14.58;81.27;99916.75;6309839;20;3510677;-59
2023/09/02 02:59:23;;;;;;;;;14.33;13.00;;;;;14.71;81.04;99915.72;6306100;20;3516932;-59
2023/09/02 03:01:51;;;;;;;;;12.00;12.00;;;;;14.62;81.16;99912.84;6310950;20;3515143;-60
2023/09/02 03:04:20;;;;;;;;;13.67;13.67;;;;;14.06;81.70;99913.31;6312504;20;3531591;-60
2023/09/02 03:06:48;;;;;;;;;12.00;11.00;;;;;13.72;82.05;99915.75;6281131;20;2786979;-60
2023/09/02 03:09:17;;;;;;;;;12.00;12.00;;;;;13.45;82.28;99915.81;6279507;20;3533584;-59
2023/09/02 03:11:46;;;;;;;;;12.67;12.67;;;;;13.41;82.62;99910.78;6279292;20;2790961;-59
2023/09/02 03:14:14;;;;;;;;;11.67;11.67;;;;;13.82;82.35;99922.22;6312259;20;3517977;-60
2023/09/02 03:16:42;;;;;;;;;14.50;14.50;;;;;13.95;82.20;99910.50;6282059;20;2808778;-59
2023/09/02 03:19:11;;;;;;;;;12.33;12.33;;;;;14.21;81.54;99909.47;6275625;20;3521236;-59
2023/09/02 03:21:39;;;;;;;;;14.00;14.00;;;;;14.41;81.54;99920.69;6311333;20;3535883;-59
2023/09/02 03:24:08;;;;;;;;;12.00;12.00;;;;;14.31;81.27;99916.94;6310052;20;3531702;-60
2023/09/02 03:26:37;;;;;;;;;12.00;12.00;;;;;13.79;81.81;99924.25;6278439;20;3522141;-59
2023/09/02 03:29:05;;;;;;;;;12.33;12.33;;;;;14.26;81.80;99919.97;6308835;20;3524339;-59
2023/09/02 03:31:33;;;;;;;;;11.50;10.00;;;;;14.56;80.97;99932.19;6312406;20;2795175;-60
2023/09/02 03:34:02;;;;;;;;;10.50;10.50;;;;;13.73;81.77;99928.25;6283065;20;2786746;-59
2023/09/02 03:36:31;;;;;;;;;13.50;11.50;;;;;14.13;81.56;99930.78;6281369;20;2491979;-59
2023/09/02 03:38:59;;;;;;;;;14.00;14.00;;;;;13.74;81.89;99931.81;6268768;20;3535723;-59
2023/09/02 03:41:28;;;;;;;;;18.33;13.33;;;;;13.71;82.10;99921.22;6276553;20;3542217;-60
2023/09/02 03:43:57;;;;;;;;;13.00;13.00;;;;;13.54;82.48;99925.13;6280423;20;3538823;-59
2023/09/02 03:46:26;;;;;;;;;19.33;14.00;;;;;13.48;82.48;99922.84;6281741;20;2819145;-59
2023/09/02 03:48:54;;;;;;;;;14.00;14.00;;;;;13.47;82.64;99934.63;6310751;20;2810792;-59
2023/09/02 03:51:22;;;;;;;;;15.00;15.00;;;;;13.68;82.65;99930.41;6280065;20;2810776;-60
2023/09/02 03:53:50;;;;;;;;;11.00;11.00;;;;;13.91;82.40;99927.91;6284150;20;2786770;-60
2023/09/02 03:56:17;;;;;;;;;12.00;12.00;;;;;13.99;81.95;99926.38;6280508;20;2810779;-59
2023/09/02 03:58:46;;;;;;;;;14.67;13.67;;;;;13.63;82.06;99927.16;6276594;20;3531495;-59
2023/09/02 04:01:15;;;;;;;;;12.00;12.00;;;;;14.02;82.10;99933.41;6307470;20;3535667;-59
2023/09/02 04:03:44;;;;;;;;;11.67;10.00;;;;;14.27;81.51;99933.38;6274489;20;2795074;-58
2023/09/02 04:06:13;;;;;;;;;16.00;13.33;;;;;13.83;81.47;99934.72;6307049;20;3544062;-58
2023/09/02 04:08:42;;;;;;;;;10.33;10.33;;;;;13.82;81.81;99934.81;6279803;20;3510842;-58
2023/09/02 04:11:11;;;;;;;;;13.00;12.00;;;;;13.38;82.32;99928.03;6313610;20;3527491;-60
2023/09/02 04:13:39;;;;;;;;;15.00;11.00;;;;;13.75;82.04;99939.81;6314034;20;3519024;-58
2023/09/02 04:16:08;;;;;;;;;12.00;12.00;;;;;13.37;81.79;99943.31;6317652;20;2803530;-59
2023/09/02 04:18:37;;;;;;;;;14.00;14.00;;;;;13.09;82.67;99944.34;6285034;20;2804481;-61
2023/09/02 04:21:09;;;;;;;;;14.33;13.00;;;;;12.94;82.49;99946.22;6278867;20;3497164;-59
2023/09/02 04:23:38;;;;;;;;;11.00;11.00;;;;;12.97;82.38;99955.94;6304628;20;3512793;-58
2023/09/02 04:26:07;;;;;;;;;13.33;13.00;;;;;13.76;81.40;99946.91;6314850;20;3531531;-60
2023/09/02 04:28:37;;;;;;;;;13.00;12.67;;;;;13.70;80.81;99950.06;6308417;20;3520041;-58
2023/09/02 04:31:05;;;;;;;;;11.50;11.50;;;;;13.34;81.32;99942.69;6313197;20;2498267;-59
2023/09/02 04:33:33;;;;;;;;;16.00;14.00;;;;;13.42;81.81;99945.72;6282649;20;2807664;-59
2023/09/02 04:36:02;;;;;;;;;12.00;12.00;;;;;13.34;81.88;99948.06;6286882;20;2801352;-58
2023/09/02 04:38:31;;;;;;;;;13.00;13.00;;;;;13.53;81.96;99953.06;6281404;20;3457619;-57
2023/09/02 04:41:06;;;;;;;;;12.33;12.33;;;;;13.97;81.69;99959.88;6314395;20;3529391;-58
2023/09/02 04:43:37;;;;;;;;;13.00;13.00;;;;;13.90;81.58;99966.66;6279968;20;3524224;-58
2023/09/02 04:46:07;;;;;;;;;18.33;15.00;;;;;13.82;81.74;99965.41;6316517;20;2821176;-57
2023/09/02 04:48:35;;;;;;;;;12.00;12.00;;;;;13.97;81.72;99973.38;6314488;20;2799297;-54
2023/09/02 04:51:03;;;;;;;;;15.00;14.00;;;;;14.21;81.53;99977.00;6284264;20;2810725;-57
2023/09/02 04:53:31;;;;;;;;;14.50;14.50;;;;;14.47;81.10;99974.25;6282843;20;2500338;-58
2023/09/02 04:56:02;;;;;;;;;12.50;12.50;;;;;14.70;81.03;99976.16;6281801;20;2491933;-57
2023/09/02 04:58:30;;;;;;;;;16.00;15.00;;;;;15.96;80.25;99974.66;6278028;20;3535897;-56
2023/09/02 05:01:11;;;;;;;;;14.33;14.33;;;;;15.36;80.26;99979.28;6281367;20;3527344;-59
2023/09/02 05:03:40;;;;;;;;;23.00;20.00;;;;;15.31;80.53;99972.50;6280082;20;2836738;-59
2023/09/02 05:06:10;;;;;;;;;20.00;20.00;;;;;15.50;80.68;99978.22;6280169;20;2836742;-58
2023/09/02 05:08:39;;;;;;;;;20.00;20.00;;;;;15.63;80.75;99977.28;6282943;20;2830609;-57
2023/09/02 05:11:08;;;;;;;;;20.00;17.00;;;;;15.82;80.61;99971.31;6276715;20;2831541;-58
2023/09/02 05:13:37;;;;;;;;;19.50;18.50;;;;;16.02;80.15;99979.56;6283131;20;2825678;-57
2023/09/02 05:16:05;;;;;;;;;18.00;18.00;;;;;15.97;80.23;99973.66;6279336;20;2832639;-58
2023/09/02 05:18:34;;;;;;;;;18.00;17.33;;;;;15.91;80.84;99970.59;6284924;20;3573353;-58
2023/09/02 05:21:03;;;;;;;;;18.67;16.33;;;;;16.17;81.00;99971.22;6279355;20;3565942;-59
2023/09/02 05:23:32;;;;;;;;;17.00;16.00;;;;;16.13;80.67;99975.16;6312935;20;2826349;-58
2023/09/02 05:26:01;;;;;;;;;19.00;17.67;;;;;16.18;80.81;99972.94;6287425;20;3573234;-58
2023/09/02 05:28:30;;;;;;;;;24.00;22.33;;;;;17.39;79.81;99978.34;6280687;20;3576388;-57
2023/09/02 05:30:59;;;;;;;;;21.33;20.00;;;;;17.36;79.20;99974.03;6283335;20;3573173;-58
2023/09/02 05:33:28;;;;;;;;;21.00;20.33;;;;;16.93;79.72;99974.97;6281608;20;3570278;-57
2023/09/02 05:35:56;;;;;;;;;14.00;13.00;;;;;16.75;80.11;99965.63;6280183;20;3525274;-58
2023/09/02 05:38:25;;;;;;;;;13.00;11.00;;;;;16.85;80.05;99966.56;6310622;20;2796100;-56
2023/09/02 05:40:54;;;;;;;;;16.00;15.00;;;;;17.18;79.57;99965.59;6313807;20;2816995;-59
2023/09/02 05:43:24;;;;;;;;;17.50;15.50;;;;;18.43;78.79;99974.66;6280172;20;2811779;-58
2023/09/02 05:45:52;;;;;;;;;14.50;14.50;;;;;19.26;76.97;99975.28;6268559;20;2494191;-59
2023/09/02 05:48:21;;;;;;;;;15.67;15.67;;;;;18.38;77.69;99979.69;6279251;20;3552424;-55
2023/09/02 05:50:49;;;;;;;;;17.00;15.00;;;;;18.02;78.64;99973.78;6282118;20;2815953;-59
2023/09/02 05:53:19;;;;;;;;;19.00;17.67;;;;;17.95;79.32;99983.47;6288517;20;2838957;-58
2023/09/02 05:55:55;;;;;;;;;15.33;15.33;;;;;19.55;76.44;99985.31;6312223;20;3545177;-58
2023/09/02 05:58:26;;;;;;;;;16.00;15.00;;;;;20.06;74.63;99982.22;6307373;20;2812195;-58
2023/09/02 06:00:55;;;;;;;;;18.00;17.00;;;;;20.87;72.59;99978.84;6277726;20;2830499;-58
2023/09/02 06:03:23;;;;;;;;;18.50;17.00;;;;;20.25;74.07;99975.84;6280637;20;2483680;-59
2023/09/02 06:05:51;;;;;;;;;16.00;16.00;;;;;20.80;72.80;99975.91;6283387;20;3560939;-57
2023/09/02 06:08:20;;;;;;;;;17.00;17.00;;;;;20.92;72.92;99981.13;6310055;20;3569003;-57
2023/09/02 06:11:01;;;;;;;;;18.00;18.00;;;;;21.24;72.36;99986.91;6278188;20;2835192;-56
2023/09/02 06:13:30;;;;;;;;;16.00;16.00;;;;;20.77;73.44;99983.50;6279008;20;2705514;-58
2023/09/02 06:16:01;;;;;;;;;15.00;13.00;;;;;21.16;72.63;99984.09;6310130;20;2685714;-57
2023/09/02 06:18:33;;;;;;;;;15.00;15.00;;;;;21.68;71.38;99981.53;6309742;20;2797185;-58
2023/09/02 06:21:13;;;;;;;;;23.33;19.33;;;;;20.72;74.32;99983.09;6281310;20;2850446;-58
2023/09/02 06:23:44;;;;;;;;;16.67;16.67;;;;;21.42;72.29;99983.38;6312645;20;3564996;-58
2023/09/02 06:26:13;;;;;;;;;14.33;13.67;;;;;23.49;65.80;99999.66;6277875;20;3536796;-57
2023/09/02 06:28:42;;;;;;;;;9.67;9.67;;;;;24.85;60.58;100001.66;6278919;20;3489027;-58
2023/09/02 06:31:12;;;;;;;;;12.67;12.67;;;;;24.88;59.91;100004.91;6312349;20;3520135;-58
2023/09/02 06:33:41;;;;;;;;;13.00;13.00;;;;;26.10;56.99;100007.84;6312710;20;2483657;-57
2023/09/02 06:36:19;;;;;;;;;15.00;13.33;;;;;24.18;62.30;100007.53;6309782;20;3539934;-58
2023/09/02 06:38:50;;;;;;;;;14.33;14.33;;;;;23.82;63.54;100018.88;6314511;20;3536820;-57
2023/09/02 06:41:20;;;;;;;;;17.33;14.67;;;;;23.56;64.28;100008.88;6318467;20;3552468;-57
2023/09/02 06:43:50;;;;;;;;;14.00;14.00;;;;;22.35;70.23;100005.59;6277681;20;2487839;-57
2023/09/02 06:46:20;;;;;;;;;14.33;13.67;;;;;24.67;63.58;100012.88;6309236;20;3530670;-58
2023/09/02 06:48:49;;;;;;;;;15.00;15.00;;;;;24.43;63.58;100011.88;6275545;20;2814846;-56
2023/09/02 06:51:18;;;;;;;;;13.00;13.00;;;;;26.97;54.91;100017.34;6270905;20;2483633;-55
2023/09/02 06:53:46;;;;;;;;;13.00;12.00;;;;;28.95;47.58;100031.22;6314773;20;3540260;-59
2023/09/02 06:56:15;;;;;;;;;15.33;14.00;;;;;30.11;46.28;100035.78;6315161;20;2483623;-59
2023/09/02 06:58:45;;;;;;;;;12.33;12.33;;;;;30.23;45.77;100036.88;6313895;20;3512825;-59
2023/09/02 07:01:22;;;;;;;;;12.00;12.00;;;;;30.26;45.58;100041.13;6312376;20;3519076;-59
2023/09/02 07:03:53;;;;;;;;;12.00;12.00;;;;;30.72;45.13;100043.81;6317788;20;2483615;-60
2023/09/02 07:06:23;;;;;;;;;10.67;10.67;;;;;31.43;45.54;100045.69;6311233;20;3506532;-60
2023/09/02 07:08:52;;;;;;;;;13.50;13.50;;;;;31.79;43.83;100048.91;6311393;20;2802513;-60
2023/09/02 07:11:20;;;;;;;;;10.33;10.33;;;;;30.99;44.73;100047.41;6287320;20;3508555;-59
2023/09/02 07:13:49;;;;;;;;;9.67;9.67;;;;;29.78;46.28;100044.94;6317779;20;2483636;-58
2023/09/02 07:16:17;;;;;;;;;9.33;9.33;;;;;31.54;43.63;100051.63;6311695;20;3484687;-59
2023/09/02 07:18:46;;;;;;;;;11.33;11.33;;;;;30.80;45.31;100054.66;6312769;20;2483590;-60
2023/09/02 07:21:21;;;;;;;;;10.00;8.00;;;;;31.12;45.46;100049.25;6310961;20;3490935;-59
2023/09/02 07:23:51;;;;;;;;;6.33;6.33;;;;;30.38;45.17;100051.31;6277655;20;2744018;-59
2023/09/02 07:26:23;;;;;;;;;8.00;8.00;;;;;30.66;45.41;100053.00;6323438;20;2747141;-59
2023/09/02 07:28:51;;;;;;;;;6.00;4.67;;;;;27.76;47.94;100044.97;6312307;20;2740870;-58
2023/09/02 07:31:20;;;;;;;;;8.00;8.00;;;;;26.40;51.41;100041.75;6322167;20;2744004;-58
2023/09/02 07:33:48;;;;;;;;;7.00;7.00;;;;;26.52;50.96;100042.19;6317385;20;2552642;-59
2023/09/02 07:36:18;;;;;;;;;5.80;5.80;;;;;27.04;51.63;100043.94;6335694;20;2739965;-58
2023/09/02 07:38:46;;;;;;;;;8.67;8.67;;;;;26.87;51.41;100040.53;6287802;20;2745173;-58
2023/09/02 07:41:15;;;;;;;;;6.00;5.00;;;;;26.65;51.51;100038.75;6314520;20;2745134;-58
2023/09/02 07:43:44;;;;;;;;;6.33;5.33;;;;;27.51;51.61;100044.50;6312199;20;2738881;-58
2023/09/02 07:46:12;;;;;;;;;5.00;5.00;;;;;27.52;50.45;100044.31;6316871;20;2742994;-59
2023/09/02 07:48:43;;;;;;;;;5.00;5.00;;;;;26.74;51.18;100045.88;6314812;20;2732724;-59
2023/09/02 07:51:12;;;;;;;;;4.00;2.00;;;;;28.04;50.77;100050.56;6315396;20;2751791;-58
2023/09/02 07:53:41;;;;;;;;;4.33;4.33;;;;;27.41;51.23;100049.47;6314062;20;2737768;-59
2023/09/02 07:56:09;;;;;;;;;4.67;4.00;;;;;27.54;50.67;100046.88;6315185;20;2748195;-59
2023/09/02 07:58:38;;;;;;;;;3.67;3.67;;;;;27.84;50.68;100055.06;6306934;20;2736818;-58
2023/09/02 08:01:07;;;;;;;;;6.00;4.80;;;;;27.87;49.74;100051.91;6339030;20;2748240;-57
2023/09/02 08:03:37;;;;;;;;;4.00;4.00;;;;;27.63;50.47;100056.72;6309246;20;2732640;-58
2023/09/02 08:06:07;;;;;;;;;4.33;4.33;;;;;28.04;49.43;100063.50;6314045;20;2735740;-58
2023/09/02 08:08:36;;;;;;;;;6.67;4.67;;;;;28.03;50.19;100062.66;6309923;20;2732649;-58
2023/09/02 08:11:06;;;;;;;;;4.33;3.67;;;;;27.59;50.89;100063.69;6311192;20;2736772;-59
2023/09/02 08:13:35;;;;;;;;;3.60;3.60;;;;;27.60;50.91;100051.63;6336361;20;2739958;-59
2023/09/02 08:16:05;;;;;;;;;4.00;3.60;;;;;27.64;50.28;100063.09;6305630;20;2737936;-59
2023/09/02 08:18:34;;;;;;;;;6.33;4.67;;;;;28.06;50.44;100066.94;6279514;20;2743136;-59
2023/09/02 08:21:10;;;;;;;;;3.00;2.80;;;;;27.62;50.11;100054.16;6339441;20;2752377;-58
2023/09/02 08:23:40;;;;;;;;;4.40;4.40;;;;;27.36;50.60;100056.44;6303354;20;2729565;-59
2023/09/02 08:26:14;;;;;;;;;4.40;4.40;;;;;27.63;50.42;100056.72;6302067;20;2742987;-59
2023/09/02 08:28:44;;;;;;;;;3.80;3.80;;;;;27.97;50.06;100055.19;6296430;20;2744047;-59
2023/09/02 08:31:19;;;;;;;;;3.33;3.33;;;;;27.44;50.71;100057.38;6279415;20;2755579;-58
2023/09/02 08:33:48;;;;;;;;;3.33;3.33;;;;;27.41;50.29;100053.13;6311289;20;2741108;-60
2023/09/02 08:36:18;;;;;;;;;4.33;4.33;;;;;27.09;51.03;100054.38;6310977;20;2744090;-59
2023/09/02 08:38:46;;;;;;;;;3.67;3.67;;;;;27.24;50.91;100062.66;6311067;20;2736811;-58
2023/09/02 08:41:30;;;;;;;;;5.00;5.00;;;;;27.82;49.67;100060.78;6334125;20;2752533;-59
2023/09/02 08:44:04;;;;;;;;;4.00;4.00;;;;;28.31;49.83;100070.13;6304829;20;2742016;-58
2023/09/02 08:46:41;;;;;;;;;4.40;4.40;;;;;27.84;49.71;100058.69;6308252;20;2745081;-58
2023/09/02 08:49:10;;;;;;;;;4.00;4.00;;;;;28.08;50.06;100062.91;6277014;20;2745143;-58
2023/09/02 08:51:40;;;;;;;;;5.20;5.20;;;;;28.85;49.15;100066.66;6337201;20;2737737;-58
2023/09/02 08:54:10;;;;;;;;;3.67;3.67;;;;;28.49;49.07;100062.22;6278384;20;2747201;-58
2023/09/02 08:56:43;;;;;;;;;5.33;4.00;;;;;28.64;49.22;100064.84;6312167;20;2731543;-59
2023/09/02 08:59:14;;;;;;;;;4.40;4.40;;;;;28.06;49.33;100066.94;6335114;20;2742036;-59
2023/09/02 09:01:46;;;;;;;;;2.00;2.00;;;;;27.72;48.91;100055.53;6309396;20;2750285;-59
2023/09/02 09:04:19;;;;;;;;;4.40;4.40;;;;;28.33;49.05;100062.47;6306638;20;2753596;-59
2023/09/02 09:06:50;;;;;;;;;4.00;4.00;;;;;28.55;48.69;100064.16;6309048;20;2749258;-59
2023/09/02 09:09:23;;;;;;;;;4.60;4.40;;;;;28.39;49.49;100075.50;6307026;20;2747336;-58
2023/09/02 09:11:53;;;;;;;;;2.00;2.00;;;;;28.96;47.09;100074.38;6284271;20;2748340;-59
2023/09/02 09:14:23;;;;;;;;;4.33;4.33;;;;;29.04;47.97;100068.75;6313990;20;2740887;-59
2023/09/02 09:16:55;;;;;;;;;5.60;4.20;;;;;28.51;49.08;100071.13;6339894;20;2740900;-58
2023/09/02 09:19:27;;;;;;;;;5.00;5.00;;;;;28.62;48.03;100073.34;6277797;20;2734654;-58
2023/09/02 09:21:57;;;;;;;;;4.00;3.33;;;;;29.01;47.39;100065.47;6311854;20;2748308;-59
2023/09/02 09:24:28;;;;;;;;;2.00;2.00;;;;;29.18;47.17;100077.94;6337652;20;2737882;-59
2023/09/02 09:27:02;;;;;;;;;4.00;4.00;;;;;29.08;47.03;100072.78;6302943;20;2746283;-59
2023/09/02 09:29:43;;;;;;;;;4.33;4.33;;;;;27.79;49.42;100064.75;6280223;20;2743194;-59
2023/09/02 09:32:15;;;;;;;;;4.00;4.00;;;;;28.73;47.81;100084.91;6338698;20;2748212;-58
2023/09/02 09:34:46;;;;;;;;;6.00;4.40;;;;;28.72;48.55;100075.72;6304710;20;2750333;-59
2023/09/02 09:37:15;;;;;;;;;5.33;3.00;;;;;28.94;48.48;100068.22;6284346;20;2733844;-59
2023/09/02 09:39:45;;;;;;;;;3.33;3.33;;;;;28.99;49.10;100068.47;6314135;20;2741991;-59
2023/09/02 09:42:19;;;;;;;;;4.00;4.00;;;;;28.82;49.60;100080.91;6335417;20;2751328;-59
2023/09/02 09:44:57;;;;;;;;;3.60;3.60;;;;;28.64;49.58;100071.22;6313814;20;2750502;-59
2023/09/02 09:47:27;;;;;;;;;5.00;5.00;;;;;28.91;48.52;100074.13;6287483;20;2749205;-59
2023/09/02 09:50:13;;;;;;;;;6.33;5.00;;;;;28.94;49.24;100068.22;6312646;20;2734023;-59
2023/09/02 09:53:00;;;;;;;;;4.00;4.00;;;;;29.10;48.53;100076.19;6317152;20;2734676;-59
2023/09/02 09:55:31;;;;;;;;;3.00;3.00;;;;;28.74;49.51;100079.16;6317020;20;2754504;-59
2023/09/02 09:58:00;;;;;;;;;2.40;2.40;;;;;29.93;47.39;100078.78;6335284;20;2742116;-58
2023/09/02 10:00:30;;;;;;;;;3.33;3.33;;;;;29.56;47.88;100079.34;6282539;20;2747232;-59
2023/09/02 10:03:00;;;;;;;;;4.00;3.00;;;;;29.45;48.67;100078.88;6311325;20;2756675;-58
2023/09/02 10:05:31;;;;;;;;;2.33;2.33;;;;;29.33;48.20;100075.00;6314227;20;2752444;-58
2023/09/02 10:08:06;;;;;;;;;4.00;4.00;;;;;28.93;49.17;100062.88;6308821;20;2749366;-58
2023/09/02 10:10:40;;;;;;;;;5.33;4.00;;;;;29.37;49.46;100069.91;6308109;20;2747284;-58
2023/09/02 10:13:09;;;;;;;;;4.33;3.33;;;;;29.62;48.31;100068.28;6315131;20;2739953;-58
2023/09/02 10:15:40;;;;;;;;;3.33;3.33;;;;;29.41;48.15;100074.84;6317191;20;2748282;-58
2023/09/02 10:18:09;;;;;;;;;4.20;4.20;;;;;29.59;47.63;100067.84;6335762;20;2743083;-58
2023/09/02 10:20:40;;;;;;;;;4.60;4.60;;;;;28.74;49.80;100065.34;6306996;20;2739004;-58
2023/09/02 10:23:10;;;;;;;;;4.67;4.67;;;;;29.09;48.77;100068.09;6278053;20;2739041;-59
2023/09/02 10:26:08;;;;;;;;;3.33;3.33;;;;;28.91;48.60;100071.38;6308533;20;2727517;-58
2023/09/02 10:28:40;;;;;;;;;4.00;4.00;;;;;29.20;49.00;100070.28;6335534;20;2739953;-60
2023/09/02 10:31:40;;;;;;;;;5.00;3.00;;;;;29.31;48.23;100071.59;6281426;20;2741046;-58
2023/09/02 10:34:27;;;;;;;;;4.00;3.00;;;;;29.59;48.56;100078.91;6312147;20;2739993;-58
2023/09/02 10:36:57;;;;;;;;;3.00;3.00;;;;;29.97;46.16;100070.94;6309394;20;2737801;-57
2023/09/02 10:40:05;;;;;;;;;3.67;3.67;;;;;29.02;48.23;100069.97;6313431;20;2736795;-57
2023/09/02 10:42:35;;;;;;;;;5.00;5.00;;;;;27.87;50.54;100068.47;6313338;20;2743005;-57
2023/09/02 10:45:06;;;;;;;;;4.40;3.40;;;;;29.31;48.86;100066.06;6339922;20;2739997;-58
2023/09/02 10:47:36;;;;;;;;;5.40;4.40;;;;;29.07;49.47;100059.19;6304881;20;2743447;-58
2023/09/02 10:50:07;;;;;;;;;3.67;3.67;;;;;29.66;48.36;100065.97;6280472;20;2742064;-58
2023/09/02 10:52:36;;;;;;;;;3.00;3.00;;;;;29.95;47.84;100062.81;6316096;20;2741024;-58
2023/09/02 10:55:09;;;;;;;;;5.00;3.67;;;;;30.63;47.01;100059.81;6312273;20;2748288;-58
2023/09/02 10:57:51;;;;;;;;;3.33;3.33;;;;;29.81;47.44;100066.66;6315924;20;2737013;-59
2023/09/02 11:00:28;;;;;;;;;3.40;3.40;;;;;29.91;47.19;100060.69;6339221;20;2741983;-58
2023/09/02 11:02:59;;;;;;;;;2.80;2.80;;;;;29.39;46.77;100065.03;6306586;20;2748264;-58
2023/09/02 11:05:28;;;;;;;;;5.00;5.00;;;;;28.85;48.08;100053.69;6282598;20;2740052;-58
2023/09/02 11:07:58;;;;;;;;;3.80;3.80;;;;;29.31;48.43;100066.06;6335358;20;2743088;-58
2023/09/02 11:10:54;;;;;;;;;4.33;4.33;;;;;29.92;46.38;100066.03;6283886;20;2744065;-58
2023/09/02 11:13:23;;;;;;;;;3.67;3.67;;;;;30.47;45.62;100059.44;6312932;20;2742087;-58
2023/09/02 11:16:15;;;;;;;;;3.33;3.33;;;;;29.70;47.34;100058.94;6317317;20;2746123;-59
2023/09/02 11:18:45;;;;;;;;;3.00;3.00;;;;;30.36;46.12;100063.69;6334180;20;2742003;-58
2023/09/02 11:21:40;;;;;;;;;3.00;3.00;;;;;30.12;46.29;100063.28;6280983;20;2745082;-58